Time;durP1;ratioP1;P1;durP2;ratioP2;P2;SDS_P1;SDS_P2;PMS_P1;PMS_P2;Temp;Humidity;BMP_temperature;BMP_pressure;BME280_temperature;BME280_humidity;BME280_pressure;Samples;Min_cycle;Max_cycle;Signal;HPM_P1;HPM_P2
2022/08/29 00:00:22;;;;;;;10.52;5.68;;;18.10;99.90;;;17.41;81.36;97552.00;4953607;28;20975;-76
2022/08/29 00:02:52;;;;;;;12.50;6.63;;;18.10;99.90;;;17.27;88.09;97551.94;4952993;28;20772;-76
2022/08/29 00:05:23;;;;;;;9.55;6.65;;;18.00;99.90;;;17.23;91.61;97548.25;4956115;28;21295;-76
2022/08/29 00:07:49;;;;;;;8.13;6.53;;;18.00;99.90;;;17.22;94.20;97548.53;4972588;28;20422;-76
2022/08/29 00:10:15;;;;;;;13.23;6.78;;;18.00;99.90;;;17.25;95.54;97555.97;4972546;28;20418;-76
2022/08/29 00:12:42;;;;;;;12.27;7.35;;;18.10;99.90;;;17.25;95.78;97545.28;4972035;28;20511;-76
2022/08/29 00:15:10;;;;;;;10.75;6.72;;;18.00;99.90;;;17.28;92.61;97545.50;4972208;28;20407;-76
2022/08/29 00:17:38;;;;;;;12.27;6.87;;;18.10;99.90;;;17.27;95.32;97551.94;4972403;28;20416;-76
2022/08/29 00:20:07;;;;;;;12.30;6.10;;;18.10;99.90;;;17.31;88.36;97552.94;4972482;28;20408;-76
2022/08/29 00:22:33;;;;;;;12.38;6.90;;;18.00;99.90;;;17.24;93.43;97557.84;4972203;28;20408;-76
2022/08/29 00:25:03;;;;;;;10.63;7.20;;;18.00;99.90;;;17.21;93.92;97552.31;4971902;28;20507;-76
2022/08/29 00:27:29;;;;;;;13.05;6.80;;;18.00;99.90;;;17.20;92.23;97553.38;4972335;28;20408;-76
2022/08/29 00:29:55;;;;;;;12.80;6.90;;;18.00;99.90;;;17.20;87.13;97559.53;4972293;28;20416;-76
2022/08/29 00:32:21;;;;;;;11.70;7.63;;;17.90;99.90;;;17.11;90.29;97555.91;4972235;28;20404;-76
2022/08/29 00:34:48;;;;;;;10.10;6.50;;;17.90;99.90;;;17.09;89.10;97558.06;4971774;28;20902;-76
2022/08/29 00:37:14;;;;;;;12.77;7.05;;;17.80;99.90;;;17.06;90.02;97558.66;4972158;28;20408;-76
2022/08/29 00:39:40;;;;;;;11.95;6.75;;;17.80;99.90;;;17.00;92.68;97555.25;4972112;28;20786;-76
2022/08/29 00:42:08;;;;;;;11.95;7.60;;;17.80;99.90;;;16.98;94.67;97554.75;4971437;28;20502;-76
2022/08/29 00:44:34;;;;;;;11.10;7.47;;;17.80;99.90;;;16.99;94.41;97550.19;4971507;28;20970;-76
2022/08/29 00:47:08;;;;;;;11.73;7.28;;;17.80;99.90;;;16.98;93.53;97554.75;4971907;28;20422;-76
2022/08/29 00:49:39;;;;;;;12.02;7.97;;;17.80;99.90;;;16.95;94.40;97557.19;4971945;28;20886;-76
2022/08/29 00:52:12;;;;;;;12.83;7.83;;;17.80;99.90;;;16.92;96.21;97555.88;4971840;28;20435;-76
2022/08/29 00:54:42;;;;;;;10.32;7.03;;;17.70;99.90;;;16.94;93.67;97558.28;4971377;28;20523;-76
2022/08/29 00:57:08;;;;;;;10.45;7.18;;;17.70;99.90;;;16.90;95.14;97560.75;4971867;28;20420;-75
2022/08/29 00:59:38;;;;;;;12.32;8.48;;;17.70;99.90;;;16.87;97.25;97555.16;4971820;28;20498;-76
2022/08/29 01:02:06;;;;;;;12.07;7.40;;;17.70;99.90;;;16.86;97.39;97551.69;4971743;28;20810;-75
2022/08/29 01:04:33;;;;;;;12.27;7.35;;;17.70;99.90;;;16.89;90.26;97558.34;4971145;28;20463;-75
2022/08/29 01:07:00;;;;;;;11.98;7.72;;;17.70;99.90;;;16.82;95.50;97563.25;4971647;28;20782;-76
2022/08/29 01:09:28;;;;;;;11.80;7.97;;;17.60;99.90;;;16.79;95.99;97567.28;4971691;28;20412;-76
2022/08/29 01:14:46;;;;;;;16.63;8.40;;;17.60;99.90;;;16.74;98.16;97564.69;4971169;28;20985;-75
2022/08/29 01:17:18;;;;;;;12.18;8.18;;;17.60;99.90;;;16.74;97.58;97577.25;4971764;28;20769;-75
2022/08/29 01:19:52;;;;;;;12.40;7.13;;;17.60;99.90;;;16.76;90.75;97572.41;4971544;28;20442;-76
2022/08/29 01:22:49;;;;;;;13.90;7.45;;;17.50;99.90;;;16.69;94.07;97575.41;4971557;28;20400;-75
2022/08/29 01:25:21;;;;;;;13.68;8.80;;;17.50;99.90;;;16.63;97.27;97566.66;4963960;28;20507;-75
2022/08/29 01:27:53;;;;;;;14.80;8.82;;;17.40;99.90;;;16.59;98.28;97570.97;4963641;28;20423;-75
2022/08/29 01:30:19;;;;;;;12.93;8.63;;;17.40;99.90;;;16.56;99.06;97565.38;4971452;28;20411;-75
2022/08/29 01:32:45;;;;;;;14.25;9.88;;;17.40;99.90;;;16.56;99.87;97568.06;4970860;28;20495;-75
2022/08/29 01:35:11;;;;;;;15.30;9.30;;;17.40;99.90;;;16.56;99.57;97571.53;4971307;28;20566;-75
2022/08/29 01:37:42;;;;;;;14.95;9.00;;;17.40;99.90;;;16.56;100.00;97576.06;4971333;28;20416;-75
2022/08/29 01:40:09;;;;;;;14.25;9.50;;;17.40;99.90;;;16.54;100.00;97571.00;4971565;28;20447;-75
2022/08/29 01:42:36;;;;;;;14.23;7.57;;;17.40;99.90;;;16.57;97.75;97573.13;4971302;28;20404;-76
2022/08/29 01:45:04;;;;;;;16.83;7.80;;;17.40;99.90;;;16.58;91.55;97571.25;4983110;23;20587;-77
2022/08/29 01:47:34;;;;;;;12.93;8.20;;;17.30;99.90;;;16.49;94.69;97571.06;4971156;28;20458;-76
2022/08/29 01:50:00;;;;;;;14.68;8.77;;;17.30;99.90;;;16.44;97.30;97581.03;4971151;28;20544;-76
2022/08/29 01:52:27;;;;;;;13.73;9.25;;;17.30;99.90;;;16.40;99.14;97569.31;4970979;28;20740;-76
2022/08/29 01:54:53;;;;;;;16.75;9.77;;;17.20;99.90;;;16.37;99.86;97573.34;4980350;28;20402;-77
2022/08/29 01:57:19;;;;;;;14.38;9.48;;;17.20;99.90;;;16.37;100.00;97570.69;4990635;28;20407;-77
2022/08/29 01:59:47;;;;;;;15.15;10.10;;;17.20;99.90;;;16.38;100.00;97568.81;4986322;28;20470;-75
2022/08/29 02:02:19;;;;;;;11.53;8.03;;;17.20;99.90;;;16.44;95.10;97567.66;4994345;28;20508;-76
2022/08/29 02:04:47;;;;;;;15.63;9.77;;;17.20;99.90;;;16.36;97.67;97568.28;4993711;28;20430;-76
2022/08/29 02:07:23;;;;;;;16.98;9.05;;;17.20;99.90;;;16.39;94.70;97575.75;4994247;28;20843;-76
2022/08/29 02:09:50;;;;;;;13.17;9.67;;;17.20;99.90;;;16.31;98.57;97571.03;4994249;28;20457;-76
2022/08/29 02:12:17;;;;;;;18.15;9.80;;;17.10;99.90;;;16.30;99.97;97572.91;4994136;28;20406;-77
2022/08/29 02:14:43;;;;;;;12.73;9.10;;;17.10;99.90;;;16.29;100.00;97565.97;4993567;28;20911;-76
2022/08/29 02:17:11;;;;;;;12.88;8.27;;;17.10;99.90;;;16.30;97.44;97567.56;4994083;28;20468;-76
2022/08/29 02:19:40;;;;;;;12.90;8.50;;;17.10;99.90;;;16.27;96.94;97578.78;4993928;28;20916;-76
2022/08/29 02:22:08;;;;;;;13.88;8.55;;;17.10;99.90;;;16.24;96.21;97572.13;4993950;28;20418;-75
2022/08/29 02:24:34;;;;;;;13.80;8.57;;;17.00;99.90;;;16.22;94.05;97582.31;4993491;28;20934;-76
2022/08/29 02:27:00;;;;;;;16.95;8.95;;;17.00;99.90;;;16.17;97.78;97574.34;4993839;28;20418;-76
2022/08/29 02:29:28;;;;;;;15.55;9.18;;;17.00;99.90;;;16.14;98.45;97574.91;4993843;28;20898;-75
2022/08/29 02:31:54;;;;;;;15.40;9.98;;;17.00;99.90;;;16.10;100.00;97570.41;4993825;28;20746;-76
2022/08/29 02:34:22;;;;;;;14.98;10.27;;;17.00;99.90;;;16.08;100.00;97565.38;4993084;28;20772;-75
2022/08/29 02:36:48;;;;;;;19.50;10.40;;;16.90;99.90;;;16.08;100.00;97570.72;4993730;28;20413;-75
2022/08/29 02:39:14;;;;;;;17.38;9.82;;;17.00;99.90;;;16.08;100.00;97567.25;4993705;28;20497;-76
2022/08/29 02:41:40;;;;;;;14.10;8.48;;;16.90;99.90;;;16.12;95.21;97569.06;4993654;28;20467;-76
2022/08/29 02:44:06;;;;;;;17.07;8.63;;;16.90;99.90;;;16.08;91.57;97562.69;4992869;28;20413;-76
2022/08/29 02:46:32;;;;;;;16.23;10.27;;;16.80;99.90;;;15.98;97.68;97570.00;4993529;28;20462;-75
2022/08/29 02:48:58;;;;;;;14.40;9.30;;;16.80;99.90;;;15.96;97.17;97561.47;4993468;28;20438;-75
2022/08/29 02:51:29;;;;;;;15.50;8.88;;;16.80;99.90;;;15.99;93.47;97559.03;4993575;28;20417;-76
2022/08/29 02:53:56;;;;;;;14.10;9.60;;;16.70;99.90;;;15.90;97.83;97563.38;4992973;28;20406;-75
2022/08/29 02:56:22;;;;;;;16.33;9.07;;;16.70;99.90;;;15.92;96.51;97560.44;4993409;28;20800;-76
2022/08/29 02:58:51;;;;;;;15.73;8.73;;;16.70;99.90;;;15.94;91.59;97551.06;4993400;28;20410;-75
2022/08/29 03:01:19;;;;;;;14.93;9.23;;;16.70;99.90;;;15.84;95.06;97556.50;4993359;28;20410;-77
2022/08/29 03:03:45;;;;;;;16.77;9.10;;;16.70;99.90;;;15.80;95.20;97552.78;4992706;28;20414;-75
2022/08/29 03:06:11;;;;;;;14.50;9.07;;;16.60;99.90;;;15.80;95.88;97561.59;4993076;28;20425;-76
2022/08/29 03:08:39;;;;;;;14.57;9.70;;;16.60;99.90;;;15.78;96.86;97568.31;4992913;28;20422;-76
2022/08/29 03:11:06;;;;;;;13.65;9.90;;;16.60;99.90;;;15.75;98.85;97568.84;4992405;28;20592;-76
2022/08/29 03:13:33;;;;;;;19.83;10.93;;;16.60;99.90;;;15.73;100.00;97566.47;4992680;28;20764;-75
2022/08/29 03:16:00;;;;;;;15.45;9.38;;;16.60;99.90;;;15.76;98.65;97557.09;4992945;28;20405;-75
2022/08/29 03:18:27;;;;;;;15.10;10.65;;;16.60;99.90;;;15.72;100.00;97567.53;4991675;28;20436;-76
2022/08/29 03:20:52;;;;;;;12.35;9.18;;;16.60;99.90;;;15.71;98.91;97563.25;4992888;28;20403;-76
2022/08/29 03:23:18;;;;;;;14.65;9.50;;;16.60;99.90;;;15.71;99.09;97562.50;4992378;28;20413;-76
2022/08/29 03:25:46;;;;;;;14.48;10.10;;;16.50;99.90;;;15.69;98.98;97553.97;4992676;28;20422;-76
2022/08/29 03:28:12;;;;;;;18.37;10.70;;;16.50;99.90;;;15.67;100.00;97556.09;4992838;28;20775;-76
2022/08/29 03:30:38;;;;;;;15.20;9.68;;;16.50;99.90;;;15.67;100.00;97558.78;4992794;28;20403;-77
2022/08/29 03:33:04;;;;;;;14.98;9.20;;;16.50;99.90;;;15.68;97.21;97552.38;4992265;28;20831;-76
2022/08/29 03:35:31;;;;;;;14.73;10.45;;;16.50;99.90;;;15.61;99.69;97552.69;4992677;28;20469;-76
2022/08/29 03:37:57;;;;;;;16.10;10.68;;;16.50;99.90;;;15.58;100.00;97558.56;4992828;28;20585;-76
2022/08/29 03:40:24;;;;;;;13.52;8.82;;;16.50;99.90;;;15.62;97.04;97559.63;4992580;28;20460;-76
2022/08/29 03:42:52;;;;;;;15.40;9.38;;;16.50;99.90;;;15.62;91.11;97562.28;4992213;28;20417;-76
2022/08/29 03:45:19;;;;;;;17.58;8.90;;;16.40;99.90;;;15.57;91.63;97564.19;4992246;28;20892;-76
2022/08/29 03:47:45;;;;;;;15.85;10.35;;;16.30;99.90;;;15.44;96.55;97569.06;4992320;28;20410;-76
2022/08/29 03:50:14;;;;;;;16.97;10.40;;;16.30;99.90;;;15.41;98.56;97577.59;4992422;28;20398;-76
2022/08/29 03:52:42;;;;;;;17.05;10.80;;;16.30;99.90;;;15.42;97.07;97576.53;4974619;28;20788;-76
2022/08/29 03:55:10;;;;;;;17.08;10.98;;;16.30;99.90;;;15.39;99.33;97574.44;4992141;28;20409;-76
2022/08/29 03:57:36;;;;;;;13.70;9.45;;;16.30;99.90;;;15.38;100.00;97575.50;4992438;28;20398;-75
2022/08/29 04:00:11;;;;;;;18.17;10.07;;;16.30;99.90;;;15.40;100.00;97572.56;4992146;28;20413;-76
2022/08/29 04:02:38;;;;;;;14.50;9.75;;;16.20;99.90;;;15.40;99.39;97569.91;4991981;28;20414;-76
2022/08/29 04:05:07;;;;;;;14.33;10.30;;;16.30;99.90;;;15.36;100.00;97566.97;4991626;28;20907;-77
2022/08/29 04:07:39;;;;;;;15.75;8.82;;;16.30;99.90;;;15.37;100.00;97576.56;4992161;28;20406;-76
2022/08/29 04:10:07;;;;;;;16.50;8.98;;;16.20;99.90;;;15.42;92.37;97563.19;4991995;28;20422;-76
2022/08/29 04:12:33;;;;;;;16.17;10.45;;;16.20;99.90;;;15.30;97.18;97567.28;4991947;28;20411;-76
2022/08/29 04:14:59;;;;;;;14.50;10.00;;;16.20;99.90;;;15.28;99.76;97574.75;4991427;28;20766;-76
2022/08/29 04:17:27;;;;;;;15.77;10.40;;;16.10;99.90;;;15.27;100.00;97575.81;4991861;28;20398;-75
2022/08/29 04:19:53;;;;;;;15.73;10.23;;;16.10;99.90;;;15.26;100.00;97575.03;4991915;28;20417;-76
2022/08/29 04:22:19;;;;;;;15.20;10.25;;;16.10;99.90;;;15.24;100.00;97571.84;4991349;28;20411;-76
2022/08/29 04:24:44;;;;;;;15.52;9.77;;;16.10;99.90;;;15.27;98.74;97573.97;4991275;28;20424;-75
2022/08/29 04:27:10;;;;;;;16.00;9.20;;;16.10;99.90;;;15.30;92.72;97581.41;4991591;28;20426;-77
2022/08/29 04:29:37;;;;;;;15.80;10.33;;;16.10;99.90;;;15.19;97.57;97579.06;4991673;28;20501;-76
2022/08/29 04:32:03;;;;;;;12.98;10.10;;;16.10;99.90;;;15.15;100.00;97594.84;4991723;28;20505;-75
2022/08/29 04:34:31;;;;;;;17.95;11.25;;;16.10;99.90;;;15.14;100.00;97593.25;4991009;28;20417;-75
2022/08/29 04:36:58;;;;;;;14.23;10.20;;;16.00;99.90;;;15.15;100.00;97591.38;4991525;28;20410;-76
2022/08/29 04:39:24;;;;;;;13.93;8.88;;;16.00;99.90;;;15.17;100.00;97583.91;4991331;28;20414;-77
2022/08/29 04:41:50;;;;;;;16.00;9.32;;;16.10;99.90;;;15.17;100.00;97597.25;4991400;28;20421;-77
2022/08/29 04:44:16;;;;;;;17.50;9.07;;;16.10;99.90;;;15.19;98.65;97587.88;4990846;28;20461;-76
2022/08/29 04:46:42;;;;;;;16.85;10.07;;;16.10;99.90;;;15.15;99.35;97589.50;4991344;28;20533;-74
2022/08/29 04:49:08;;;;;;;16.55;9.30;;;16.00;99.90;;;15.13;99.69;97586.31;4991239;28;20411;-75
2022/08/29 04:51:35;;;;;;;14.13;9.77;;;16.00;99.90;;;15.10;100.00;97593.00;4991363;28;20402;-75
2022/08/29 04:54:02;;;;;;;18.73;11.38;;;16.00;99.90;;;15.09;100.00;97588.75;4990519;28;20956;-75
2022/08/29 04:56:28;;;;;;;15.95;9.30;;;16.00;99.90;;;15.14;100.00;97592.44;4991349;28;20410;-75
2022/08/29 04:58:54;;;;;;;14.33;9.70;;;16.00;99.90;;;15.11;98.52;97589.25;4991356;28;20414;-76
2022/08/29 05:01:23;;;;;;;16.45;11.10;;;16.00;99.90;;;15.05;100.00;97590.34;4989815;28;20421;-76
2022/08/29 05:03:51;;;;;;;14.70;8.98;;;15.90;99.90;;;15.07;100.00;97595.41;4990617;28;20405;-76
2022/08/29 05:06:20;;;;;;;16.52;9.48;;;15.90;99.90;;;15.07;100.00;97590.88;4991092;28;20493;-76
2022/08/29 05:08:47;;;;;;;14.52;9.75;;;15.90;99.90;;;15.10;98.19;97603.69;4991124;28;20541;-76
2022/08/29 05:11:15;;;;;;;17.67;9.35;;;15.90;99.90;;;15.07;99.36;97606.88;4991044;28;20413;-76
2022/08/29 05:13:42;;;;;;;15.57;9.60;;;15.90;99.90;;;15.07;100.00;97616.75;4990600;28;20436;-75
2022/08/29 05:16:11;;;;;;;18.33;9.30;;;15.90;99.90;;;15.10;99.20;97613.53;4991015;28;20450;-76
2022/08/29 05:18:38;;;;;;;17.20;10.37;;;15.90;99.90;;;15.07;100.00;97612.22;4990890;28;20955;-75
2022/08/29 05:21:05;;;;;;;14.15;10.38;;;15.90;99.90;;;15.07;100.00;97617.53;4990855;28;20399;-76
2022/08/29 05:23:31;;;;;;;19.08;9.63;;;15.90;99.90;;;15.11;97.65;97613.25;4990479;28;20780;-76
2022/08/29 05:26:01;;;;;;;14.55;9.43;;;15.90;99.90;;;15.13;95.61;97617.50;4990882;28;20757;-76
2022/08/29 05:28:30;;;;;;;15.82;10.00;;;15.90;99.90;;;15.14;94.89;97622.56;4990848;28;20410;-76
2022/08/29 05:30:57;;;;;;;15.30;10.75;;;15.90;99.90;;;15.11;99.10;97612.44;4990948;28;20415;-76
2022/08/29 05:33:23;;;;;;;16.13;11.13;;;15.90;99.90;;;15.13;100.00;97612.16;4992186;28;20509;-76
2022/08/29 05:35:49;;;;;;;15.82;9.95;;;16.00;99.90;;;15.19;100.00;97614.53;4994837;28;20540;-76
2022/08/29 05:38:16;;;;;;;15.73;10.35;;;16.00;99.90;;;15.21;100.00;97615.06;4994742;28;20399;-76
2022/08/29 05:40:42;;;;;;;15.35;11.18;;;16.10;99.90;;;15.28;100.00;97612.91;4994808;28;20780;-76
2022/08/29 05:43:10;;;;;;;16.42;10.45;;;16.10;99.90;;;15.33;100.00;97609.41;4994317;28;20414;-76
2022/08/29 05:45:37;;;;;;;15.18;10.70;;;16.20;99.90;;;15.38;100.00;97614.72;4994376;28;20418;-76
2022/08/29 05:48:06;;;;;;;15.52;10.90;;;16.20;99.90;;;15.42;100.00;97613.88;4994566;28;20918;-76
2022/08/29 05:50:36;;;;;;;16.13;11.05;;;16.30;99.90;;;15.46;100.00;97611.47;4994407;28;20410;-77
2022/08/29 05:53:02;;;;;;;14.48;9.45;;;16.30;99.90;;;15.52;100.00;97614.88;4976432;28;20497;-73
2022/08/29 05:55:28;;;;;;;14.40;9.60;;;16.30;99.90;;;15.54;100.00;97613.59;4994484;28;20493;-76
2022/08/29 05:57:55;;;;;;;15.93;10.10;;;16.30;99.90;;;15.56;100.00;97624.78;4994547;28;20449;-74
2022/08/29 06:00:22;;;;;;;16.88;11.05;;;16.40;99.90;;;15.59;100.00;97626.09;4994421;28;20417;-74
2022/08/29 06:02:48;;;;;;;13.95;10.27;;;16.40;99.90;;;15.63;100.00;97632.47;4993803;28;20409;-74
2022/08/29 06:05:14;;;;;;;17.48;11.20;;;16.40;99.90;;;15.68;100.00;97635.09;4993489;28;20997;-75
2022/08/29 06:07:40;;;;;;;16.40;11.53;;;16.50;99.90;;;15.72;100.00;97634.25;4994132;28;20410;-74
2022/08/29 06:10:07;;;;;;;19.38;11.25;;;16.60;99.90;;;15.79;100.00;97642.75;4994137;28;20760;-74
2022/08/29 06:12:36;;;;;;;15.57;10.85;;;16.60;99.90;;;15.85;100.00;97640.84;4993765;28;20429;-77
2022/08/29 06:15:04;;;;;;;16.75;11.45;;;16.60;99.90;;;15.88;100.00;97640.28;4993010;28;20408;-75
2022/08/29 06:17:33;;;;;;;20.43;12.00;;;16.70;99.90;;;15.95;100.00;97639.97;4995956;28;20412;-74
2022/08/29 06:19:59;;;;;;;16.93;11.67;;;16.70;99.90;;;15.99;100.00;97641.00;4991959;28;20761;-76
2022/08/29 06:22:25;;;;;;;20.30;12.02;;;16.80;99.90;;;16.05;100.00;97642.56;4993126;28;20434;-74
2022/08/29 06:24:54;;;;;;;18.63;12.75;;;16.90;99.90;;;16.10;100.00;97651.31;4996270;28;20421;-74
2022/08/29 06:27:20;;;;;;;17.40;12.05;;;16.90;99.90;;;16.14;100.00;97646.22;4995090;28;20650;-74
2022/08/29 06:29:46;;;;;;;17.85;11.40;;;16.90;99.90;;;16.19;100.00;97644.31;4997211;28;20490;-76
2022/08/29 06:32:12;;;;;;;17.13;11.00;;;17.00;99.90;;;16.23;100.00;97644.56;4986184;28;20417;-74
2022/08/29 06:34:40;;;;;;;16.52;10.40;;;17.00;99.90;;;16.28;100.00;97652.50;4983155;28;20459;-74
2022/08/29 06:37:06;;;;;;;16.15;11.07;;;17.00;99.90;;;16.32;100.00;97655.41;4989133;28;20764;-76
2022/08/29 06:39:32;;;;;;;19.73;10.20;;;17.10;99.90;;;16.37;100.00;97660.72;4985643;28;20409;-75
2022/08/29 06:41:58;;;;;;;18.20;10.35;;;17.10;99.90;;;16.40;100.00;97657.47;4989140;28;20413;-77
2022/08/29 06:44:25;;;;;;;14.75;10.50;;;17.10;99.90;;;16.44;100.00;97650.50;4990724;28;20857;-75
2022/08/29 06:46:51;;;;;;;19.83;9.95;;;17.20;99.90;;;16.46;100.00;97653.69;4971049;28;20485;-76
2022/08/29 06:49:19;;;;;;;15.38;10.15;;;17.20;99.90;;;16.51;100.00;97654.44;4987285;28;20511;-73
2022/08/29 06:51:51;;;;;;;13.88;9.85;;;17.20;99.90;;;16.57;100.00;97653.31;4994190;28;20907;-73
2022/08/29 06:54:19;;;;;;;14.15;9.18;;;17.30;99.90;;;16.60;100.00;97663.47;4992731;28;20406;-73
2022/08/29 06:56:46;;;;;;;18.30;10.20;;;17.40;99.90;;;16.68;100.00;97653.25;4990724;28;20401;-73
2022/08/29 06:59:12;;;;;;;17.67;9.90;;;17.40;99.90;;;16.71;100.00;97658.81;4987727;28;20400;-75
2022/08/29 07:01:41;;;;;;;18.42;10.27;;;17.40;99.90;;;16.76;100.00;97655.28;4973653;28;20936;-75
2022/08/29 07:04:07;;;;;;;15.45;10.80;;;17.50;99.90;;;16.80;100.00;97650.97;4972673;28;20407;-75
2022/08/29 07:06:34;;;;;;;17.42;9.90;;;17.50;99.90;;;16.84;100.00;97655.44;4973286;28;20535;-75
2022/08/29 07:09:02;;;;;;;19.45;10.43;;;17.60;99.90;;;16.88;100.00;97658.34;4973101;28;20954;-75
2022/08/29 07:11:30;;;;;;;16.42;9.55;;;17.60;99.90;;;16.89;100.00;97660.75;4973155;28;20483;-75
2022/08/29 07:13:58;;;;;;;18.05;9.05;;;17.60;99.90;;;16.93;100.00;97661.75;4973157;28;20404;-75
2022/08/29 07:16:25;;;;;;;13.77;8.98;;;17.70;99.90;;;16.99;100.00;97663.28;4979560;28;20409;-78
2022/08/29 07:18:51;;;;;;;15.18;9.48;;;17.70;99.90;;;17.06;100.00;97671.00;4993976;28;20418;-75
2022/08/29 07:21:19;;;;;;;19.83;10.32;;;17.80;99.90;;;17.13;100.00;97665.31;4976220;28;20839;-75
2022/08/29 07:23:45;;;;;;;17.67;10.00;;;17.80;99.90;;;17.21;100.00;97660.13;4984880;28;20416;-75
2022/08/29 07:26:21;;;;;;;14.93;9.52;;;17.90;99.90;;;17.28;100.00;97665.13;4983786;28;20426;-76
2022/08/29 07:28:48;;;;;;;15.65;10.70;;;18.00;99.90;;;17.37;100.00;97669.50;4992955;28;20402;-75
2022/08/29 07:31:14;;;;;;;12.73;9.57;;;18.10;99.90;;;17.47;100.00;97670.47;4974507;28;20816;-73
2022/08/29 07:33:40;;;;;;;12.82;9.80;;;18.10;99.90;;;17.53;100.00;97672.00;4992175;28;20418;-76
2022/08/29 07:36:07;;;;;;;16.88;9.48;;;18.20;99.90;;;17.60;100.00;97675.09;4992320;28;20888;-75
2022/08/29 07:38:33;;;;;;;17.35;9.50;;;18.30;99.90;;;17.64;100.00;97682.31;4989923;28;20402;-76
2022/08/29 07:41:01;;;;;;;16.25;9.65;;;18.30;99.90;;;17.69;100.00;97676.88;4957847;28;20503;-75
2022/08/29 07:43:29;;;;;;;17.13;9.60;;;18.40;99.90;;;17.75;99.95;97677.59;4972470;28;20416;-75
2022/08/29 07:45:56;;;;;;;14.63;9.95;;;18.40;99.90;;;17.85;99.73;97690.06;4996880;23;20434;-77
2022/08/29 07:48:23;;;;;;;15.20;9.80;;;18.50;99.90;;;17.94;99.87;97686.44;4990650;28;20410;-78
2022/08/29 07:50:49;;;;;;;16.27;9.73;;;18.60;99.90;;;18.01;100.00;97678.03;4991772;28;20414;-79
2022/08/29 07:53:16;;;;;;;14.73;9.05;;;18.70;99.90;;;18.06;99.87;97683.31;4991915;28;20407;-78
2022/08/29 07:55:42;;;;;;;16.05;10.88;;;18.70;99.90;;;18.06;97.47;97676.06;4991450;28;20482;-77
2022/08/29 07:58:08;;;;;;;16.65;10.70;;;18.70;99.90;;;18.14;97.27;97679.97;4992070;28;20768;-77
2022/08/29 08:00:36;;;;;;;15.88;9.63;;;18.80;99.90;;;18.21;97.47;97682.25;4991834;28;20760;-77
2022/08/29 08:03:03;;;;;;;15.10;9.23;;;18.90;99.90;;;18.26;97.39;97683.00;4991498;28;20406;-77
2022/08/29 08:05:29;;;;;;;14.38;9.30;;;18.90;99.90;;;18.32;97.10;97678.34;4991941;28;20402;-77
2022/08/29 08:07:55;;;;;;;16.58;10.73;;;19.00;99.90;;;18.47;96.77;97680.75;4990980;28;20465;-76
2022/08/29 08:10:22;;;;;;;17.60;10.85;;;19.10;99.90;;;18.47;95.85;97678.09;4987861;28;20426;-76
2022/08/29 08:12:50;;;;;;;13.13;9.40;;;19.10;99.90;;;18.51;95.57;97679.06;4991438;28;20884;-76
2022/08/29 08:15:16;;;;;;;14.80;9.32;;;19.20;99.90;;;18.54;95.40;97689.22;4991712;28;20398;-77
2022/08/29 08:17:44;;;;;;;17.87;9.90;;;19.20;99.90;;;18.58;93.01;97689.44;4989974;28;20490;-79
2022/08/29 08:20:11;;;;;;;15.82;10.02;;;19.20;99.90;;;18.68;92.87;97687.38;4988216;28;20402;-75
2022/08/29 08:22:37;;;;;;;12.27;9.23;;;19.30;99.90;;;18.77;93.56;97693.66;4991297;28;20836;-72
2022/08/29 08:25:04;;;;;;;14.97;9.73;;;19.40;99.90;;;18.84;93.81;97682.53;4991254;28;20410;-73
2022/08/29 08:27:31;;;;;;;14.50;8.82;;;19.50;99.90;;;18.91;93.50;97682.94;4991591;28;20424;-72
2022/08/29 08:29:57;;;;;;;16.50;8.98;;;19.60;99.90;;;18.97;92.93;97686.31;4991592;28;20425;-73
2022/08/29 08:32:23;;;;;;;17.48;8.98;;;19.60;99.90;;;19.05;92.88;97685.63;4991373;28;20410;-73
2022/08/29 08:34:50;;;;;;;11.10;7.82;;;19.70;99.90;;;19.13;92.77;97684.94;4991052;28;20815;-73
2022/08/29 08:37:16;;;;;;;12.57;8.07;;;19.70;99.90;;;19.22;92.73;97689.31;4991562;28;20406;-73
2022/08/29 08:39:43;;;;;;;17.08;8.65;;;19.80;99.90;;;19.28;91.79;97687.31;4991402;28;20414;-72
2022/08/29 08:42:19;;;;;;;15.40;8.10;;;19.90;99.90;;;19.39;91.81;97693.28;4991337;28;20414;-72
2022/08/29 08:45:02;;;;;;;13.93;8.15;;;19.90;99.90;;;19.47;91.48;97682.63;4990922;28;20406;-73
2022/08/29 08:47:35;;;;;;;14.05;7.97;;;20.00;99.90;;;19.56;91.41;97686.22;4991220;28;20429;-73
2022/08/29 08:50:14;;;;;;;12.90;7.82;;;20.20;99.90;;;19.64;90.39;97682.00;4991547;28;20502;-73
2022/08/29 08:52:46;;;;;;;17.85;7.93;;;20.20;99.90;;;19.71;89.95;97690.44;4989563;28;20427;-73
2022/08/29 08:55:27;;;;;;;12.00;7.43;;;20.30;99.90;;;19.79;89.80;97687.03;4991001;28;20813;-73
2022/08/29 08:58:04;;;;;;;12.25;7.57;;;20.40;99.90;;;19.86;88.93;97686.63;4991209;28;20411;-73
2022/08/29 09:00:40;;;;;;;17.57;8.83;;;20.40;99.90;;;19.92;87.79;97680.06;4991310;28;20438;-73
2022/08/29 09:03:23;;;;;;;13.27;7.53;;;20.50;99.90;;;19.99;86.93;97693.88;4989556;28;20410;-73
2022/08/29 09:06:09;;;;;;;19.85;8.35;;;20.60;99.90;;;20.10;88.00;97690.63;4991113;28;20418;-73
2022/08/29 09:08:48;;;;;;;12.50;7.97;;;20.60;99.90;;;20.21;87.51;97682.34;4991142;28;20433;-73
2022/08/29 09:11:26;;;;;;;13.05;8.02;;;20.70;99.90;;;20.28;86.26;97693.44;4991179;28;20406;-73
2022/08/29 09:14:01;;;;;;;14.00;7.97;;;20.80;99.90;;;20.32;85.95;97689.84;4990810;28;20395;-72
2022/08/29 09:16:33;;;;;;;12.27;8.07;;;20.90;99.90;;;20.45;86.72;97690.88;4985102;28;20412;-72
2022/08/29 09:19:03;;;;;;;13.20;7.68;;;21.00;99.90;;;20.52;86.03;97695.84;4990916;28;20394;-72
2022/08/29 09:21:38;;;;;;;12.98;7.32;;;21.10;99.90;;;20.62;86.12;97690.19;4990980;28;20405;-73
2022/08/29 09:24:09;;;;;;;14.73;7.60;;;21.10;99.90;;;20.74;85.59;97690.44;4990002;28;20476;-73
2022/08/29 09:26:35;;;;;;;12.23;7.18;;;21.20;99.90;;;20.79;85.11;97693.78;4990927;28;20836;-72
2022/08/29 09:29:01;;;;;;;12.50;7.00;;;21.30;99.90;;;20.90;85.06;97690.84;4990914;28;20410;-72
2022/08/29 09:31:33;;;;;;;13.02;7.40;;;21.40;99.90;;;20.95;82.60;97688.78;4990908;28;20887;-72
2022/08/29 09:34:04;;;;;;;11.70;6.93;;;21.50;99.90;;;20.96;80.38;97697.66;4990381;28;20805;-72
2022/08/29 09:36:40;;;;;;;12.02;6.78;;;21.40;99.90;;;21.06;82.86;97684.69;4990678;28;20446;-73
2022/08/29 09:39:15;;;;;;;13.75;7.32;;;21.60;99.90;;;21.19;81.62;97681.16;4990519;28;20406;-73
2022/08/29 09:41:42;;;;;;;11.57;6.47;;;21.70;99.90;;;21.18;81.29;97690.34;4990962;28;20506;-73
2022/08/29 09:44:17;;;;;;;15.70;6.70;;;21.70;99.90;;;21.20;81.54;97696.19;4990456;28;20776;-73
2022/08/29 09:46:43;;;;;;;11.25;6.25;;;21.70;99.90;;;21.27;81.53;97686.88;4990768;28;20414;-73
2022/08/29 09:49:13;;;;;;;10.73;6.18;;;21.70;99.90;;;21.36;81.18;97682.28;4990922;28;20433;-73
2022/08/29 09:51:43;;;;;;;9.07;5.90;;;21.90;99.90;;;21.45;81.68;97683.09;4991000;28;20406;-73
2022/08/29 09:54:14;;;;;;;11.85;6.60;;;21.90;99.90;;;21.49;79.03;97695.66;4990270;28;20781;-73
2022/08/29 09:56:50;;;;;;;10.93;6.13;;;22.00;99.90;;;21.58;79.82;97691.03;4990820;28;20410;-73
2022/08/29 09:59:26;;;;;;;14.45;6.78;;;22.00;99.90;;;21.67;78.98;97684.88;4990757;28;20430;-73
2022/08/29 10:02:18;;;;;;;9.15;6.05;;;22.20;99.90;;;21.81;80.54;97677.44;4990886;28;20821;-73
2022/08/29 10:04:47;;;;;;;12.18;6.18;;;22.30;99.90;;;21.97;79.09;97675.88;4990004;28;20768;-73
2022/08/29 10:07:19;;;;;;;10.87;5.87;;;22.40;99.90;;;22.01;78.99;97679.56;4989640;28;20414;-72
2022/08/29 10:09:59;;;;;;;10.45;6.00;;;22.40;99.90;;;22.09;79.24;97677.97;4982654;28;20485;-72
2022/08/29 10:12:46;;;;;;;9.67;5.90;;;22.50;99.90;;;22.22;79.00;97683.19;4989350;28;20422;-73
2022/08/29 10:15:21;;;;;;;12.70;6.38;;;22.60;99.90;;;22.38;78.65;97686.19;4990664;28;20418;-73